Time;durP1;ratioP1;P1;durP2;ratioP2;P2;SDS_P1;SDS_P2;PMS_P1;PMS_P2;Temp;Humidity;BMP_temperature;BMP_pressure;BME280_temperature;BME280_humidity;BME280_pressure;Samples;Min_cycle;Max_cycle;Signal;HPM_P1;HPM_P2
2023/06/25 00:00:49;;;;;;;3.90;3.60;;;;;;;;;;5049540;28;20210;-31
2023/06/25 00:03:17;;;;;;;3.88;3.42;;;;;;;;;;5046050;28;20210;-28
2023/06/25 00:05:44;;;;;;;4.90;3.88;;;;;;;;;;5052049;28;20215;-31
2023/06/25 00:08:12;;;;;;;4.25;3.85;;;;;;;;;;5053857;28;20591;-27
2023/06/25 00:10:39;;;;;;;4.50;4.10;;;;;;;;;;5052435;28;20207;-27
2023/06/25 00:13:06;;;;;;;5.30;3.50;;;;;;;;;;5056714;28;20641;-28
2023/06/25 00:15:33;;;;;;;3.83;3.35;;;;;;;;;;5049166;28;20230;-27
2023/06/25 00:18:00;;;;;;;3.50;3.20;;;;;;;;;;5038344;28;20237;-25
2023/06/25 00:20:28;;;;;;;3.65;3.35;;;;;;;;;;5047969;28;20209;-28
2023/06/25 00:22:55;;;;;;;3.80;3.08;;;;;;;;;;5071090;28;20210;-27
2023/06/25 00:25:26;;;;;;;4.00;3.58;;;;;;;;;;5050839;28;20206;-27
2023/06/25 00:27:57;;;;;;;5.25;3.63;;;;;;;;;;5062546;28;20234;-28
2023/06/25 00:30:24;;;;;;;3.88;3.47;;;;;;;;;;5073385;28;20347;-28
2023/06/25 00:32:54;;;;;;;4.18;3.78;;;;;;;;;;5063398;28;20202;-25
2023/06/25 00:35:24;;;;;;;4.65;3.97;;;;;;;;;;5055181;28;20222;-25
2023/06/25 00:37:56;;;;;;;3.60;3.30;;;;;;;;;;5052443;28;20227;-29
2023/06/25 00:40:25;;;;;;;4.07;3.67;;;;;;;;;;5048618;28;20198;-28
2023/06/25 00:42:56;;;;;;;4.15;3.78;;;;;;;;;;5061337;28;20496;-27
2023/06/25 00:45:26;;;;;;;5.05;4.20;;;;;;;;;;5072660;28;20206;-25
2023/06/25 00:47:53;;;;;;;4.05;3.65;;;;;;;;;;5039778;28;20223;-30
2023/06/25 00:50:21;;;;;;;4.47;3.47;;;;;;;;;;5055458;28;20206;-29
2023/06/25 00:52:49;;;;;;;3.80;3.38;;;;;;;;;;5070925;28;20205;-29
2023/06/25 00:55:16;;;;;;;4.28;3.88;;;;;;;;;;5051743;28;20225;-29
2023/06/25 00:57:45;;;;;;;3.80;3.50;;;;;;;;;;5065895;28;20221;-28
2023/06/25 01:00:14;;;;;;;4.00;3.60;;;;;;;;;;5052220;28;20217;-30
2023/06/25 01:02:44;;;;;;;5.43;3.80;;;;;;;;;;5046774;28;20255;-29
2023/06/25 01:05:14;;;;;;;6.43;3.58;;;;;;;;;;5066765;28;20199;-27
2023/06/25 01:07:44;;;;;;;6.22;3.15;;;;;;;;;;5050472;28;20226;-28
2023/06/25 01:10:11;;;;;;;4.13;3.72;;;;;;;;;;5048794;28;20209;-29
2023/06/25 01:12:38;;;;;;;4.30;3.90;;;;;;;;;;5060122;28;20427;-31
2023/06/25 01:15:09;;;;;;;4.15;3.63;;;;;;;;;;5052366;28;20373;-31
2023/06/25 01:17:36;;;;;;;4.10;3.75;;;;;;;;;;5048156;28;20253;-32
2023/06/25 01:20:05;;;;;;;6.25;3.70;;;;;;;;;;5048000;28;20440;-31
2023/06/25 01:22:34;;;;;;;4.00;3.70;;;;;;;;;;5060101;28;20657;-31
2023/06/25 01:25:01;;;;;;;3.85;3.40;;;;;;;;;;5051013;28;20201;-30
2023/06/25 01:27:28;;;;;;;3.83;3.42;;;;;;;;;;5048209;28;20288;-30
2023/06/25 01:29:57;;;;;;;3.67;3.38;;;;;;;;;;5071108;28;20213;-30
2023/06/25 01:32:24;;;;;;;5.65;3.72;;;;;;;;;;5056484;28;20213;-27
2023/06/25 01:34:52;;;;;;;4.70;3.90;;;;;;;;;;5060808;28;20225;-27
2023/06/25 01:37:19;;;;;;;3.97;3.65;;;;;;;;;;5066188;28;20201;-31
2023/06/25 01:39:49;;;;;;;5.47;3.92;;;;;;;;;;5050492;28;20210;-30
2023/06/25 01:42:16;;;;;;;4.10;3.70;;;;;;;;;;5059608;28;20247;-27
2023/06/25 01:44:43;;;;;;;4.20;3.50;;;;;;;;;;5054251;28;20198;-32
2023/06/25 01:47:11;;;;;;;4.60;4.20;;;;;;;;;;5043796;28;20217;-30
2023/06/25 01:49:38;;;;;;;3.93;3.60;;;;;;;;;;5062220;28;20201;-30
2023/06/25 01:52:05;;;;;;;3.83;3.53;;;;;;;;;;5058329;28;20214;-28
2023/06/25 01:54:32;;;;;;;3.95;3.63;;;;;;;;;;5049340;28;20221;-30
2023/06/25 01:57:01;;;;;;;3.65;3.22;;;;;;;;;;5062651;28;20207;-31
2023/06/25 01:59:28;;;;;;;3.88;3.47;;;;;;;;;;5071686;28;20229;-29
2023/06/25 02:01:55;;;;;;;3.97;3.60;;;;;;;;;;5061707;28;20297;-32
2023/06/25 02:04:22;;;;;;;3.83;3.40;;;;;;;;;;5047269;28;20201;-31
2023/06/25 02:06:49;;;;;;;4.22;3.83;;;;;;;;;;5060008;28;20277;-30
2023/06/25 02:09:16;;;;;;;4.70;3.38;;;;;;;;;;5051063;28;20223;-29
2023/06/25 02:11:44;;;;;;;3.43;3.13;;;;;;;;;;5062939;28;20215;-31
2023/06/25 02:14:12;;;;;;;3.72;3.40;;;;;;;;;;5051033;28;20288;-30
2023/06/25 02:16:39;;;;;;;3.80;3.40;;;;;;;;;;5048321;28;20210;-30
2023/06/25 02:19:06;;;;;;;4.95;3.65;;;;;;;;;;5047376;28;20691;-33
2023/06/25 02:21:33;;;;;;;4.13;3.53;;;;;;;;;;5058997;28;20205;-31
2023/06/25 02:24:01;;;;;;;3.93;3.50;;;;;;;;;;5053756;28;20194;-28
2023/06/25 02:26:29;;;;;;;3.40;3.10;;;;;;;;;;5050321;28;20580;-32
2023/06/25 02:28:56;;;;;;;4.03;3.50;;;;;;;;;;5060829;28;20225;-33
2023/06/25 02:31:25;;;;;;;4.25;3.42;;;;;;;;;;5071007;28;20204;-31
2023/06/25 02:33:52;;;;;;;4.10;3.70;;;;;;;;;;5046727;28;20202;-31
2023/06/25 02:36:19;;;;;;;4.38;3.97;;;;;;;;;;5057951;28;20221;-30
2023/06/25 02:38:46;;;;;;;3.83;3.53;;;;;;;;;;5059828;28;20226;-32
2023/06/25 02:41:13;;;;;;;4.60;3.77;;;;;;;;;;5059560;28;20201;-27
2023/06/25 02:43:40;;;;;;;4.00;3.70;;;;;;;;;;5070853;28;20273;-31
2023/06/25 02:46:07;;;;;;;4.53;4.13;;;;;;;;;;5069752;28;20215;-32
2023/06/25 02:48:37;;;;;;;3.37;3.10;;;;;;;;;;5060442;28;20221;-28
2023/06/25 02:51:04;;;;;;;3.80;3.50;;;;;;;;;;5051239;28;20429;-31
2023/06/25 02:53:31;;;;;;;3.80;3.50;;;;;;;;;;5043241;28;20237;-29
2023/06/25 02:55:58;;;;;;;3.67;3.35;;;;;;;;;;5056830;28;20217;-28
2023/06/25 02:58:25;;;;;;;5.77;3.27;;;;;;;;;;5055352;28;20213;-33
2023/06/25 03:00:52;;;;;;;3.80;3.50;;;;;;;;;;5048910;28;20228;-33
2023/06/25 03:03:19;;;;;;;3.58;3.22;;;;;;;;;;5041356;28;20198;-28
2023/06/25 03:05:48;;;;;;;3.70;3.40;;;;;;;;;;5064308;28;20209;-31
2023/06/25 03:08:15;;;;;;;3.40;3.08;;;;;;;;;;5048190;28;20234;-30
2023/06/25 03:10:42;;;;;;;3.90;3.20;;;;;;;;;;5044903;28;20228;-32
2023/06/25 03:13:09;;;;;;;3.80;3.50;;;;;;;;;;5065945;28;20194;-30
2023/06/25 03:15:36;;;;;;;4.03;3.50;;;;;;;;;;5050631;28;20325;-33
2023/06/25 03:18:03;;;;;;;3.93;3.53;;;;;;;;;;5046610;28;20232;-31
2023/06/25 03:20:30;;;;;;;4.70;3.87;;;;;;;;;;5057226;28;20292;-30
2023/06/25 03:22:59;;;;;;;3.90;3.57;;;;;;;;;;5069484;28;20215;-31
2023/06/25 03:25:26;;;;;;;6.33;4.03;;;;;;;;;;5053896;28;20204;-29
2023/06/25 03:27:53;;;;;;;4.93;3.60;;;;;;;;;;5049913;28;20221;-31
2023/06/25 03:30:20;;;;;;;3.97;3.67;;;;;;;;;;5050378;28;20217;-32
2023/06/25 03:32:47;;;;;;;4.63;3.60;;;;;;;;;;5051746;28;20521;-32
2023/06/25 03:35:14;;;;;;;3.50;3.20;;;;;;;;;;5054417;28;20224;-29
2023/06/25 03:37:42;;;;;;;4.20;3.77;;;;;;;;;;5068880;28;20221;-30
2023/06/25 03:40:11;;;;;;;4.17;3.77;;;;;;;;;;5051019;28;20210;-27
2023/06/25 03:42:38;;;;;;;4.03;3.43;;;;;;;;;;5068632;28;20205;-29
2023/06/25 03:45:06;;;;;;;4.97;3.57;;;;;;;;;;5052665;28;20198;-29
2023/06/25 03:47:33;;;;;;;3.57;3.27;;;;;;;;;;5051981;28;20226;-29
2023/06/25 03:50:00;;;;;;;8.07;3.67;;;;;;;;;;5044547;28;20206;-28
2023/06/25 03:52:27;;;;;;;3.90;3.53;;;;;;;;;;5054148;28;20200;-28
2023/06/25 03:54:54;;;;;;;3.97;3.67;;;;;;;;;;5044060;28;20206;-30
2023/06/25 03:57:23;;;;;;;4.63;4.17;;;;;;;;;;5054601;28;20197;-30
2023/06/25 03:59:50;;;;;;;4.30;3.90;;;;;;;;;;5075886;28;20205;-28
2023/06/25 04:02:17;;;;;;;3.90;3.50;;;;;;;;;;5073587;28;20208;-27
2023/06/25 04:04:44;;;;;;;3.67;2.90;;;;;;;;;;5046682;28;20206;-29
2023/06/25 04:07:11;;;;;;;3.80;3.40;;;;;;;;;;5068508;28;20208;-25
2023/06/25 04:09:38;;;;;;;3.70;3.33;;;;;;;;;;5061239;28;20229;-29
2023/06/25 04:12:06;;;;;;;4.70;3.60;;;;;;;;;;5057281;28;20204;-29
2023/06/25 04:14:34;;;;;;;3.73;3.43;;;;;;;;;;5073623;28;20691;-30
2023/06/25 04:17:01;;;;;;;5.53;3.80;;;;;;;;;;5074395;28;20225;-26
2023/06/25 04:19:29;;;;;;;4.40;3.90;;;;;;;;;;5052871;28;20226;-27
2023/06/25 04:21:56;;;;;;;4.70;3.63;;;;;;;;;;5065339;28;20209;-28
2023/06/25 04:24:23;;;;;;;4.00;3.60;;;;;;;;;;5060885;28;20209;-26
2023/06/25 04:26:50;;;;;;;3.77;3.47;;;;;;;;;;5052236;28;20202;-26
2023/06/25 04:29:17;;;;;;;3.87;3.57;;;;;;;;;;5060354;28;20526;-29
2023/06/25 04:31:45;;;;;;;4.57;4.17;;;;;;;;;;5055299;28;20210;-29
2023/06/25 04:34:13;;;;;;;3.97;3.57;;;;;;;;;;5049551;28;20206;-25
2023/06/25 04:36:40;;;;;;;4.23;3.83;;;;;;;;;;5065025;28;20220;-27
2023/06/25 04:39:07;;;;;;;4.23;3.87;;;;;;;;;;5055803;28;20248;-29
2023/06/25 04:41:34;;;;;;;4.37;3.97;;;;;;;;;;5062589;28;20209;-27
2023/06/25 04:44:01;;;;;;;4.10;3.70;;;;;;;;;;5063270;28;20210;-30
2023/06/25 04:46:28;;;;;;;3.97;3.57;;;;;;;;;;5054881;28;20205;-28
2023/06/25 04:48:56;;;;;;;8.17;3.90;;;;;;;;;;5052981;28;20234;-29
2023/06/25 04:51:24;;;;;;;5.07;4.27;;;;;;;;;;5054480;28;20202;-27
2023/06/25 04:53:51;;;;;;;5.17;4.30;;;;;;;;;;5051064;28;20209;-27
2023/06/25 04:56:18;;;;;;;5.07;4.20;;;;;;;;;;5065729;28;20220;-31
2023/06/25 04:58:45;;;;;;;5.27;4.40;;;;;;;;;;5056517;28;20225;-26
2023/06/25 05:01:12;;;;;;;4.47;4.03;;;;;;;;;;5049611;28;20251;-27
2023/06/25 05:03:39;;;;;;;4.30;3.90;;;;;;;;;;5053352;28;20213;-28
2023/06/25 05:06:08;;;;;;;4.33;3.93;;;;;;;;;;5070425;28;20254;-27
2023/06/25 05:08:35;;;;;;;4.17;3.77;;;;;;;;;;5048370;28;20217;-27
2023/06/25 05:11:02;;;;;;;4.27;3.87;;;;;;;;;;5049348;28;20227;-26
2023/06/25 05:13:30;;;;;;;4.73;4.27;;;;;;;;;;5066138;28;20201;-25
2023/06/25 05:15:57;;;;;;;4.75;4.35;;;;;;;;;;5074826;28;20583;-28
2023/06/25 05:18:25;;;;;;;4.83;4.17;;;;;;;;;;5057674;28;20232;-29
2023/06/25 05:20:52;;;;;;;6.13;4.20;;;;;;;;;;5055455;28;20201;-25
2023/06/25 05:23:21;;;;;;;5.28;4.10;;;;;;;;;;5061074;28;20198;-28
2023/06/25 05:25:48;;;;;;;4.60;4.20;;;;;;;;;;5053603;28;20207;-29
2023/06/25 05:28:15;;;;;;;4.80;4.40;;;;;;;;;;5062205;28;20221;-26
2023/06/25 05:30:42;;;;;;;9.23;4.43;;;;;;;;;;5054674;28;20302;-27
2023/06/25 05:33:09;;;;;;;4.38;3.97;;;;;;;;;;5098150;22;20258;-26
2023/06/25 05:35:38;;;;;;;6.43;4.10;;;;;;;;;;4991676;28;20224;-26
2023/06/25 05:38:05;;;;;;;4.93;4.47;;;;;;;;;;4980570;28;20741;-25
2023/06/25 05:40:33;;;;;;;4.35;4.05;;;;;;;;;;5006895;28;20242;-27
2023/06/25 05:43:00;;;;;;;4.82;4.35;;;;;;;;;;5011614;28;20217;-27
2023/06/25 05:45:27;;;;;;;5.18;4.20;;;;;;;;;;5012311;28;20207;-25
2023/06/25 05:47:55;;;;;;;4.95;4.43;;;;;;;;;;5007249;28;20219;-27
2023/06/25 05:50:22;;;;;;;4.68;3.75;;;;;;;;;;5006184;28;20214;-26
2023/06/25 05:52:49;;;;;;;4.70;4.25;;;;;;;;;;5014043;28;20250;-25
2023/06/25 05:55:16;;;;;;;4.55;4.15;;;;;;;;;;5004373;28;20209;-24
2023/06/25 05:57:44;;;;;;;5.75;4.13;;;;;;;;;;5013530;28;20593;-25
2023/06/25 06:00:23;;;;;;;4.20;3.80;;;;;;;;;;5014451;28;20220;-26
2023/06/25 06:02:50;;;;;;;5.30;4.30;;;;;;;;;;5007792;28;20210;-24
2023/06/25 06:05:18;;;;;;;4.38;3.63;;;;;;;;;;5002863;28;20233;-34
2023/06/25 06:07:45;;;;;;;3.97;3.55;;;;;;;;;;5012608;28;20229;-26
2023/06/25 06:10:13;;;;;;;3.83;3.50;;;;;;;;;;5005640;28;20213;-39
2023/06/25 06:12:40;;;;;;;5.65;3.88;;;;;;;;;;5012113;28;20213;-30
2023/06/25 06:15:09;;;;;;;4.40;4.00;;;;;;;;;;5013311;28;20220;-32
2023/06/25 06:17:36;;;;;;;4.85;3.83;;;;;;;;;;5007471;28;20242;-33
2023/06/25 06:20:03;;;;;;;5.68;3.65;;;;;;;;;;5013010;28;20209;-32
2023/06/25 06:22:31;;;;;;;4.00;3.65;;;;;;;;;;5013754;28;20210;-34
2023/06/25 06:24:58;;;;;;;4.65;4.13;;;;;;;;;;5005179;28;20218;-35
2023/06/25 06:27:25;;;;;;;5.55;3.75;;;;;;;;;;5008116;28;20201;-34
2023/06/25 06:29:52;;;;;;;4.85;4.18;;;;;;;;;;5013498;28;20217;-32
2023/06/25 06:32:20;;;;;;;4.78;4.30;;;;;;;;;;5012899;28;20220;-33
2023/06/25 06:34:48;;;;;;;5.13;4.60;;;;;;;;;;5011511;28;20237;-30
2023/06/25 06:37:15;;;;;;;5.47;4.20;;;;;;;;;;5012290;28;20223;-30
2023/06/25 06:39:42;;;;;;;5.13;4.47;;;;;;;;;;5006858;28;20562;-32
2023/06/25 06:42:09;;;;;;;4.72;4.32;;;;;;;;;;5008962;28;20201;-30
2023/06/25 06:44:36;;;;;;;5.18;4.68;;;;;;;;;;5013998;28;20194;-29
2023/06/25 06:47:03;;;;;;;5.13;4.28;;;;;;;;;;5003037;28;20209;-30
2023/06/25 06:49:32;;;;;;;5.72;4.35;;;;;;;;;;4995185;28;20241;-32
2023/06/25 06:51:59;;;;;;;5.35;4.85;;;;;;;;;;5013912;28;20212;-34
2023/06/25 06:54:26;;;;;;;7.70;4.78;;;;;;;;;;5006169;28;20206;-30
2023/06/25 06:56:54;;;;;;;4.93;4.43;;;;;;;;;;5010264;28;20225;-30
2023/06/25 06:59:21;;;;;;;5.75;4.97;;;;;;;;;;5012377;28;20223;-33
2023/06/25 07:01:48;;;;;;;5.25;4.80;;;;;;;;;;5013923;28;20281;-28
2023/06/25 07:04:15;;;;;;;5.15;4.65;;;;;;;;;;5011747;28;20205;-30
2023/06/25 07:06:44;;;;;;;5.88;4.68;;;;;;;;;;5011955;28;20696;-34
2023/06/25 07:09:11;;;;;;;5.35;4.80;;;;;;;;;;5005779;28;20597;-30
2023/06/25 07:11:38;;;;;;;5.00;4.50;;;;;;;;;;5009172;28;20204;-30
2023/06/25 07:14:05;;;;;;;6.68;5.80;;;;;;;;;;5012992;28;20211;-30
2023/06/25 07:16:32;;;;;;;5.88;5.28;;;;;;;;;;5012328;28;20245;-33
2023/06/25 07:18:59;;;;;;;6.47;5.57;;;;;;;;;;5005781;28;20233;-33
2023/06/25 07:21:26;;;;;;;5.72;4.78;;;;;;;;;;5004733;28;20215;-34
2023/06/25 07:23:55;;;;;;;5.65;4.93;;;;;;;;;;5003164;28;20239;-31
2023/06/25 07:26:22;;;;;;;6.03;5.20;;;;;;;;;;5006480;28;20203;-34
2023/06/25 07:28:49;;;;;;;5.80;5.20;;;;;;;;;;5012360;28;20222;-34
2023/06/25 07:31:16;;;;;;;5.70;5.20;;;;;;;;;;5012424;28;20203;-30
2023/06/25 07:33:43;;;;;;;5.07;4.57;;;;;;;;;;5029637;28;20210;-34
2023/06/25 07:36:10;;;;;;;8.13;4.70;;;;;;;;;;5042780;28;20218;-36
2023/06/25 07:38:37;;;;;;;5.15;4.65;;;;;;;;;;5013387;28;20222;-30
2023/06/25 07:41:06;;;;;;;5.93;5.13;;;;;;;;;;5028754;28;20203;-37
2023/06/25 07:43:33;;;;;;;6.43;4.82;;;;;;;;;;5028874;28;20550;-37
2023/06/25 07:46:00;;;;;;;5.50;4.80;;;;;;;;;;5012174;28;20309;-32
2023/06/25 07:48:27;;;;;;;4.68;4.28;;;;;;;;;;5014472;28;20229;-34
2023/06/25 07:50:54;;;;;;;4.75;4.35;;;;;;;;;;5034092;28;20574;-35
2023/06/25 07:53:22;;;;;;;7.22;4.38;;;;;;;;;;5041025;28;20203;-31
2023/06/25 07:55:49;;;;;;;4.97;4.47;;;;;;;;;;5019158;28;20656;-33
2023/06/25 07:58:18;;;;;;;4.45;4.05;;;;;;;;;;5027953;28;20219;-36
2023/06/25 08:00:45;;;;;;;5.13;4.30;;;;;;;;;;5011526;28;20234;-29
2023/06/25 08:03:12;;;;;;;5.78;4.20;;;;;;;;;;5024303;28;20211;-35
2023/06/25 08:05:39;;;;;;;6.03;4.45;;;;;;;;;;5028578;28;20194;-33
2023/06/25 08:08:06;;;;;;;4.68;4.28;;;;;;;;;;5047137;28;20222;-39
2023/06/25 08:10:34;;;;;;;4.90;4.40;;;;;;;;;;5022706;28;20206;-31
2023/06/25 08:13:01;;;;;;;4.90;4.45;;;;;;;;;;5042875;28;20204;-32
2023/06/25 08:15:29;;;;;;;5.35;4.35;;;;;;;;;;5011785;28;20293;-33
2023/06/25 08:17:57;;;;;;;5.20;4.50;;;;;;;;;;5022863;28;20242;-34
2023/06/25 08:20:24;;;;;;;5.55;4.55;;;;;;;;;;5029671;28;20281;-34
2023/06/25 08:22:51;;;;;;;6.43;4.82;;;;;;;;;;5051866;28;20228;-39
2023/06/25 08:25:23;;;;;;;5.45;4.65;;;;;;;;;;5032398;28;20206;-34
2023/06/25 08:27:50;;;;;;;5.90;4.85;;;;;;;;;;5047570;28;20218;-34
2023/06/25 08:30:17;;;;;;;5.95;4.35;;;;;;;;;;5052421;28;20210;-33
2023/06/25 08:32:45;;;;;;;5.93;4.70;;;;;;;;;;5047085;28;20218;-36
2023/06/25 08:35:13;;;;;;;7.60;5.43;;;;;;;;;;5012161;28;20203;-34
2023/06/25 08:37:40;;;;;;;6.90;5.72;;;;;;;;;;5027967;28;20233;-32
2023/06/25 08:40:09;;;;;;;5.82;5.15;;;;;;;;;;5040611;28;20536;-30
2023/06/25 08:42:36;;;;;;;5.80;5.15;;;;;;;;;;5026531;28;20199;-35
2023/06/25 08:45:03;;;;;;;6.22;5.30;;;;;;;;;;5035920;28;20212;-34
2023/06/25 08:47:34;;;;;;;5.50;5.00;;;;;;;;;;5055205;28;20217;-36
2023/06/25 08:50:04;;;;;;;6.97;4.72;;;;;;;;;;5046920;28;20400;-35
2023/06/25 08:52:32;;;;;;;5.43;4.55;;;;;;;;;;5019871;28;20773;-34
2023/06/25 08:54:59;;;;;;;5.50;5.00;;;;;;;;;;5027802;28;20260;-33
2023/06/25 08:57:26;;;;;;;5.18;4.65;;;;;;;;;;5017150;28;20218;-27
2023/06/25 08:59:53;;;;;;;6.15;5.50;;;;;;;;;;5025409;28;20211;-33
2023/06/25 09:02:20;;;;;;;5.63;5.03;;;;;;;;;;5019816;28;20206;-36
2023/06/25 09:04:47;;;;;;;5.07;4.57;;;;;;;;;;5031769;28;20209;-32
2023/06/25 09:07:16;;;;;;;5.10;4.70;;;;;;;;;;5024415;28;20290;-34
2023/06/25 09:09:43;;;;;;;6.05;4.43;;;;;;;;;;5021354;28;20268;-30
2023/06/25 09:12:11;;;;;;;6.95;5.15;;;;;;;;;;5032899;28;20199;-38
2023/06/25 09:14:38;;;;;;;6.47;4.82;;;;;;;;;;5015800;28;20207;-30
2023/06/25 09:17:06;;;;;;;5.30;4.63;;;;;;;;;;5028825;28;20305;-32
2023/06/25 09:19:33;;;;;;;5.70;5.07;;;;;;;;;;5043266;28;20218;-30
2023/06/25 09:22:01;;;;;;;6.30;5.07;;;;;;;;;;5015876;28;20207;-31
2023/06/25 09:24:30;;;;;;;5.50;4.95;;;;;;;;;;5019807;28;20214;-33
2023/06/25 09:26:57;;;;;;;6.05;5.45;;;;;;;;;;5023965;28;20225;-30
2023/06/25 09:29:24;;;;;;;6.05;5.45;;;;;;;;;;5020625;28;20230;-36
2023/06/25 09:31:51;;;;;;;5.78;5.03;;;;;;;;;;5033018;28;20202;-33
2023/06/25 09:34:26;;;;;;;9.15;5.43;;;;;;;;;;5027365;28;20199;-33
2023/06/25 09:36:53;;;;;;;8.15;5.53;;;;;;;;;;5032178;28;20209;-32
2023/06/25 09:39:20;;;;;;;6.90;5.72;;;;;;;;;;5025300;28;20235;-31
2023/06/25 09:41:50;;;;;;;6.82;5.28;;;;;;;;;;5034050;28;20233;-31
2023/06/25 09:44:17;;;;;;;8.90;6.72;;;;;;;;;;5034769;28;20198;-32
2023/06/25 09:46:47;;;;;;;5.90;5.30;;;;;;;;;;5032130;28;20655;-33
2023/06/25 09:49:15;;;;;;;8.73;5.45;;;;;;;;;;5021136;28;20714;-31
2023/06/25 09:51:47;;;;;;;6.15;4.95;;;;;;;;;;5021532;28;20205;-32
2023/06/25 09:54:17;;;;;;;5.47;4.97;;;;;;;;;;5024238;28;20214;-35
2023/06/25 09:56:45;;;;;;;5.20;4.68;;;;;;;;;;5021433;28;20587;-33
2023/06/25 09:59:14;;;;;;;5.72;5.15;;;;;;;;;;5031167;28;20222;-28
2023/06/25 10:01:41;;;;;;;6.45;5.28;;;;;;;;;;5031728;28;20418;-35
2023/06/25 10:04:15;;;;;;;6.20;5.60;;;;;;;;;;5022190;28;20555;-36
2023/06/25 10:06:43;;;;;;;6.45;5.68;;;;;;;;;;5027336;28;20210;-34
2023/06/25 10:09:10;;;;;;;5.82;5.22;;;;;;;;;;5020491;28;20222;-38
2023/06/25 10:11:37;;;;;;;5.82;4.75;;;;;;;;;;5024334;28;20252;-35
2023/06/25 10:14:05;;;;;;;6.55;5.20;;;;;;;;;;5031593;28;20218;-30
2023/06/25 10:16:34;;;;;;;5.93;4.97;;;;;;;;;;5033457;28;20202;-35
2023/06/25 10:19:01;;;;;;;6.88;5.20;;;;;;;;;;5028301;28;20692;-34
2023/06/25 10:21:29;;;;;;;5.90;5.32;;;;;;;;;;5028788;28;20209;-30
2023/06/25 10:23:59;;;;;;;6.18;5.30;;;;;;;;;;5025411;28;20211;-35
2023/06/25 10:26:27;;;;;;;5.30;4.78;;;;;;;;;;5028471;28;20207;-32
2023/06/25 10:28:54;;;;;;;8.15;5.30;;;;;;;;;;5032957;28;20226;-35
2023/06/25 10:31:22;;;;;;;8.85;5.82;;;;;;;;;;5028217;28;20195;-33
2023/06/25 10:33:50;;;;;;;5.97;5.05;;;;;;;;;;5039062;28;20807;-33
2023/06/25 10:36:25;;;;;;;6.45;4.95;;;;;;;;;;5020998;28;20203;-34
2023/06/25 10:38:52;;;;;;;6.05;5.07;;;;;;;;;;5017311;28;20234;-35
2023/06/25 10:41:26;;;;;;;7.72;5.75;;;;;;;;;;5026710;28;20206;-33
2023/06/25 10:43:53;;;;;;;6.55;5.82;;;;;;;;;;5028075;28;20232;-30
2023/06/25 10:46:27;;;;;;;7.78;6.22;;;;;;;;;;5032261;28;20205;-33
2023/06/25 10:48:56;;;;;;;6.82;5.28;;;;;;;;;;5020595;28;20587;-32
2023/06/25 10:51:23;;;;;;;5.30;4.80;;;;;;;;;;5035885;28;20201;-36
2023/06/25 10:53:52;;;;;;;6.60;5.10;;;;;;;;;;5028034;28;20211;-30
2023/06/25 10:56:19;;;;;;;8.40;5.35;;;;;;;;;;5026726;28;20198;-35
2023/06/25 10:58:46;;;;;;;6.15;5.30;;;;;;;;;;5019254;28;20226;-31
2023/06/25 11:01:14;;;;;;;6.10;5.28;;;;;;;;;;5032430;28;20217;-37
2023/06/25 11:03:41;;;;;;;5.82;5.22;;;;;;;;;;5021660;28;20578;-30
2023/06/25 11:06:09;;;;;;;5.90;5.25;;;;;;;;;;5023341;28;20208;-30
2023/06/25 11:08:37;;;;;;;5.53;4.88;;;;;;;;;;5024086;28;20231;-29
2023/06/25 11:11:04;;;;;;;5.65;5.13;;;;;;;;;;5015114;28;20342;-30
2023/06/25 11:13:33;;;;;;;6.18;5.45;;;;;;;;;;5014352;28;20195;-34
2023/06/25 11:16:05;;;;;;;6.88;5.38;;;;;;;;;;5031010;28;20206;-34
2023/06/25 11:18:32;;;;;;;6.65;5.32;;;;;;;;;;5024573;28;20230;-30
2023/06/25 11:20:59;;;;;;;8.60;4.95;;;;;;;;;;5021206;28;20203;-28
2023/06/25 11:23:29;;;;;;;5.65;4.90;;;;;;;;;;5025286;28;20203;-31
2023/06/25 11:26:01;;;;;;;6.53;5.15;;;;;;;;;;5030418;28;20206;-35
2023/06/25 11:28:28;;;;;;;5.78;5.05;;;;;;;;;;5016687;28;20217;-35
2023/06/25 11:30:58;;;;;;;6.18;5.38;;;;;;;;;;5032250;28;20256;-31
2023/06/25 11:33:25;;;;;;;6.15;5.35;;;;;;;;;;5019703;28;20215;-32
2023/06/25 11:35:52;;;;;;;6.70;4.93;;;;;;;;;;5026367;28;20653;-31
2023/06/25 11:38:26;;;;;;;7.45;5.55;;;;;;;;;;5027589;28;20229;-31
2023/06/25 11:40:55;;;;;;;5.95;5.35;;;;;;;;;;5027168;28;20210;-31
2023/06/25 11:43:25;;;;;;;5.57;5.03;;;;;;;;;;5031483;28;20202;-33
2023/06/25 11:45:53;;;;;;;7.55;4.88;;;;;;;;;;5031885;28;20206;-30
2023/06/25 11:48:21;;;;;;;5.20;4.70;;;;;;;;;;5027822;28;20246;-29
2023/06/25 11:50:52;;;;;;;8.35;5.35;;;;;;;;;;5029768;28;20203;-31
2023/06/25 11:53:19;;;;;;;6.20;5.00;;;;;;;;;;5029256;28;20645;-32
2023/06/25 11:55:47;;;;;;;6.72;5.50;;;;;;;;;;5023855;28;20206;-31
2023/06/25 11:58:15;;;;;;;5.50;5.00;;;;;;;;;;5032298;28;20222;-29
2023/06/25 12:00:42;;;;;;;5.53;5.03;;;;;;;;;;5030032;28;20195;-31
2023/06/25 12:03:10;;;;;;;5.68;4.90;;;;;;;;;;5023411;28;20222;-28
2023/06/25 12:05:37;;;;;;;5.72;5.00;;;;;;;;;;5031302;28;20203;-36
2023/06/25 12:08:04;;;;;;;5.75;5.10;;;;;;;;;;5029269;28;20224;-29
2023/06/25 12:10:31;;;;;;;6.80;5.15;;;;;;;;;;5027335;28;20203;-33
2023/06/25 12:12:59;;;;;;;5.93;5.05;;;;;;;;;;5031237;28;20213;-32
2023/06/25 12:15:27;;;;;;;5.80;5.25;;;;;;;;;;5031927;28;20209;-32
2023/06/25 12:17:54;;;;;;;5.53;4.90;;;;;;;;;;5030953;28;20826;-36
2023/06/25 12:20:21;;;;;;;4.85;4.40;;;;;;;;;;5030437;28;20214;-32
2023/06/25 12:22:48;;;;;;;5.93;4.68;;;;;;;;;;5036205;28;20206;-31
2023/06/25 12:25:15;;;;;;;5.60;4.80;;;;;;;;;;5023886;28;20206;-32
2023/06/25 12:27:44;;;;;;;5.30;4.80;;;;;;;;;;5127749;23;20225;-25
2023/06/25 12:30:13;;;;;;;6.35;4.78;;;;;;;;;;5054623;28;20321;-22
2023/06/25 12:32:42;;;;;;;5.63;4.93;;;;;;;;;;5046088;28;20209;-25
2023/06/25 12:35:10;;;;;;;5.32;4.68;;;;;;;;;;5055358;28;20236;-24
2023/06/25 12:37:37;;;;;;;7.57;5.28;;;;;;;;;;5054281;28;20225;-24
2023/06/25 12:40:05;;;;;;;6.38;5.30;;;;;;;;;;5051578;28;20202;-23
2023/06/25 12:42:32;;;;;;;5.88;5.00;;;;;;;;;;5055019;28;20210;-23
2023/06/25 12:44:59;;;;;;;7.13;5.65;;;;;;;;;;5055587;28;20220;-24
2023/06/25 12:47:26;;;;;;;7.50;5.97;;;;;;;;;;5054579;28;20206;-25
2023/06/25 12:49:55;;;;;;;5.88;5.05;;;;;;;;;;5049982;28;20217;-25
2023/06/25 12:52:22;;;;;;;6.53;5.03;;;;;;;;;;5054730;28;20197;-25
2023/06/25 12:54:49;;;;;;;5.60;5.10;;;;;;;;;;5048471;28;20225;-26
2023/06/25 12:57:16;;;;;;;6.53;4.90;;;;;;;;;;5053953;28;20209;-24
2023/06/25 12:59:43;;;;;;;5.65;4.75;;;;;;;;;;5055152;28;20229;-22
2023/06/25 13:02:10;;;;;;;6.13;4.85;;;;;;;;;;5047161;28;20203;-24
2023/06/25 13:04:37;;;;;;;5.88;4.90;;;;;;;;;;5048699;28;20201;-26
2023/06/25 13:07:06;;;;;;;4.68;4.25;;;;;;;;;;5052918;28;20208;-25
2023/06/25 13:09:34;;;;;;;6.30;4.55;;;;;;;;;;5050346;28;20218;-24
2023/06/25 13:12:01;;;;;;;5.25;4.63;;;;;;;;;;5053013;28;20205;-24
2023/06/25 13:14:28;;;;;;;5.13;4.63;;;;;;;;;;5052236;28;20206;-26
2023/06/25 13:16:55;;;;;;;8.07;4.65;;;;;;;;;;5042020;28;20210;-23
2023/06/25 13:19:22;;;;;;;4.75;4.32;;;;;;;;;;5042322;28;20230;-24
2023/06/25 13:21:49;;;;;;;5.72;5.13;;;;;;;;;;5054136;28;20345;-26
2023/06/25 13:24:17;;;;;;;6.90;5.25;;;;;;;;;;5043146;28;20225;-25
2023/06/25 13:26:46;;;;;;;6.22;5.38;;;;;;;;;;5050985;28;20210;-23
2023/06/25 13:29:13;;;;;;;6.00;4.90;;;;;;;;;;5053580;28;20225;-26
2023/06/25 13:31:40;;;;;;;6.75;5.20;;;;;;;;;;5054164;28;20271;-23
2023/06/25 13:34:07;;;;;;;5.60;4.93;;;;;;;;;;5048053;28;20206;-25
2023/06/25 13:36:34;;;;;;;6.50;5.75;;;;;;;;;;5045588;28;20202;-28
2023/06/25 13:39:01;;;;;;;5.07;4.55;;;;;;;;;;5049062;28;20227;-25
2023/06/25 13:41:30;;;;;;;6.93;5.47;;;;;;;;;;5049773;28;20202;-25
2023/06/25 13:43:57;;;;;;;6.50;5.15;;;;;;;;;;5054052;28;20213;-23
2023/06/25 13:46:24;;;;;;;6.72;5.47;;;;;;;;;;5052136;28;20231;-25
2023/06/25 13:48:51;;;;;;;7.70;4.68;;;;;;;;;;5046581;28;20226;-24
2023/06/25 13:51:18;;;;;;;5.80;4.65;;;;;;;;;;5053809;28;20198;-26
2023/06/25 13:53:45;;;;;;;5.63;4.70;;;;;;;;;;5045706;28;20214;-23
2023/06/25 13:56:12;;;;;;;5.60;5.00;;;;;;;;;;5050170;28;20206;-22
2023/06/25 13:58:41;;;;;;;6.25;5.18;;;;;;;;;;5053339;28;20221;-27
2023/06/25 14:01:08;;;;;;;5.45;4.65;;;;;;;;;;5051946;28;20210;-25
2023/06/25 14:03:35;;;;;;;6.28;4.97;;;;;;;;;;5039914;28;20206;-26
2023/06/25 14:06:02;;;;;;;5.60;5.00;;;;;;;;;;5045704;28;20197;-27
2023/06/25 14:08:29;;;;;;;6.50;4.80;;;;;;;;;;5049423;28;20226;-24
2023/06/25 14:10:56;;;;;;;5.50;4.72;;;;;;;;;;5044862;28;20206;-26
2023/06/25 14:13:23;;;;;;;5.60;4.93;;;;;;;;;;5052165;28;20200;-23
2023/06/25 14:15:52;;;;;;;5.47;4.85;;;;;;;;;;5054013;28;20212;-24
2023/06/25 14:18:19;;;;;;;5.28;4.75;;;;;;;;;;5052783;28;20222;-25
2023/06/25 14:20:46;;;;;;;5.15;4.63;;;;;;;;;;5047522;28;20229;-25
2023/06/25 14:23:15;;;;;;;5.78;4.93;;;;;;;;;;5050654;28;20209;-25
2023/06/25 14:25:42;;;;;;;6.10;4.90;;;;;;;;;;5049538;28;20208;-23
2023/06/25 14:28:09;;;;;;;5.57;4.97;;;;;;;;;;5053633;28;20225;-24
2023/06/25 14:30:36;;;;;;;5.40;4.90;;;;;;;;;;5053689;28;20206;-26
2023/06/25 14:33:05;;;;;;;5.32;4.82;;;;;;;;;;5049421;28;20206;-23
2023/06/25 14:35:34;;;;;;;6.45;4.93;;;;;;;;;;5052783;28;20205;-23
2023/06/25 14:38:01;;;;;;;6.43;4.93;;;;;;;;;;5051951;28;20806;-24
2023/06/25 14:40:28;;;;;;;5.78;4.88;;;;;;;;;;5041802;28;20222;-27
2023/06/25 14:42:55;;;;;;;5.35;4.85;;;;;;;;;;5051597;28;20202;-24
2023/06/25 14:45:23;;;;;;;5.30;4.80;;;;;;;;;;5053117;28;20206;-26